createdAt,value
2023-03-22T00:02:16.610Z,70.54
2023-03-22T00:04:44.717Z,70.94
2023-03-22T00:07:12.820Z,70.89
2023-03-22T00:09:40.854Z,71.04
2023-03-22T00:12:08.925Z,71.03
2023-03-22T00:14:37.006Z,71.22
2023-03-22T00:17:05.064Z,71.43
2023-03-22T00:19:34.231Z,71.51
2023-03-22T00:22:03.740Z,71.83
2023-03-22T00:24:32.141Z,71.92
2023-03-22T00:27:01.199Z,72.07
2023-03-22T00:29:29.427Z,72.03
2023-03-22T00:31:58.602Z,72.22
2023-03-22T00:34:31.699Z,72.19
2023-03-22T00:37:00.285Z,72.31
2023-03-22T00:39:28.292Z,72.16
2023-03-22T00:41:56.420Z,72.38
2023-03-22T00:44:24.611Z,72.28
2023-03-22T00:46:52.646Z,72.76
2023-03-22T00:49:20.630Z,72.70
2023-03-22T00:51:48.706Z,72.74
2023-03-22T00:54:17.576Z,73.11
2023-03-22T00:56:46.070Z,72.97
2023-03-22T00:59:17.185Z,73.24
2023-03-22T01:01:45.390Z,73.18
2023-03-22T01:04:18.097Z,73.42
2023-03-22T01:06:47.413Z,73.35
2023-03-22T01:09:15.646Z,73.58
2023-03-22T01:11:45.434Z,73.90
2023-03-22T01:14:14.166Z,73.89
2023-03-22T01:16:42.358Z,73.96
2023-03-22T01:19:10.993Z,73.92
2023-03-22T01:21:39.878Z,74.23
2023-03-22T01:24:08.344Z,74.30
2023-03-22T01:26:36.555Z,74.52
2023-03-22T01:29:05.495Z,74.29
2023-03-22T01:31:33.492Z,74.30
2023-03-22T01:34:01.785Z,74.09
2023-03-22T01:36:30.465Z,74.05
2023-03-22T01:38:59.397Z,73.88
2023-03-22T01:41:27.472Z,74.01
2023-03-22T01:44:15.111Z,73.78
2023-03-22T01:46:45.280Z,73.79
2023-03-22T01:49:26.056Z,73.73
2023-03-22T01:51:57.176Z,73.75
2023-03-22T01:54:48.629Z,73.90
2023-03-22T01:57:41.514Z,74.13
2023-03-22T02:00:15.937Z,74.17
2023-03-22T02:03:02.849Z,74.30
2023-03-22T02:05:37.303Z,74.15
2023-03-22T02:08:06.718Z,74.27
2023-03-22T02:10:50.176Z,74.44
2023-03-22T02:13:24.705Z,74.36
2023-03-22T02:16:54.665Z,74.36
2023-03-22T02:19:30.740Z,74.70
2023-03-22T02:22:14.624Z,74.79
2023-03-22T02:25:12.492Z,74.84
2023-03-22T02:27:59.134Z,74.72
2023-03-22T02:30:40.494Z,74.89
2023-03-22T02:33:30.922Z,75.04
2023-03-22T02:36:26.903Z,75.07
2023-03-22T02:39:12.732Z,75.22
2023-03-22T02:41:59.540Z,75.37
2023-03-22T02:44:36.338Z,75.44
2023-03-22T02:47:38.798Z,75.45
2023-03-22T02:50:21.114Z,75.47
2023-03-22T02:53:05.095Z,75.59
2023-03-22T02:55:32.998Z,75.62
2023-03-22T02:58:15.830Z,75.66
2023-03-22T03:00:49.551Z,75.74
2023-03-22T03:03:19.742Z,75.80
2023-03-22T03:05:55.969Z,75.70
2023-03-22T03:08:26.353Z,75.76
2023-03-22T03:10:55.360Z,75.84
2023-03-22T03:13:24.420Z,75.79
2023-03-22T03:15:57.446Z,75.78
2023-03-22T03:18:53.428Z,75.86
2023-03-22T03:21:54.369Z,75.86
2023-03-22T03:24:44.763Z,76.07
2023-03-22T03:27:28.399Z,76.19
2023-03-22T03:30:34.943Z,76.33
2023-03-22T03:33:09.505Z,76.29
2023-03-22T03:35:53.509Z,76.25
2023-03-22T03:38:29.338Z,76.18
2023-03-22T03:41:02.274Z,76.43
2023-03-22T03:43:31.927Z,76.28
2023-03-22T03:46:01.068Z,76.37
2023-03-22T03:48:33.548Z,76.46
2023-03-22T03:51:02.708Z,76.52
2023-03-22T03:53:31.648Z,76.57
2023-03-22T03:55:59.713Z,76.63
2023-03-22T03:58:30.964Z,76.75
2023-03-22T04:00:59.132Z,76.69
2023-03-22T04:03:55.567Z,76.90
2023-03-22T04:06:45.480Z,77.01
2023-03-22T04:09:17.713Z,76.93
2023-03-22T04:11:48.701Z,77.18
2023-03-22T04:14:17.104Z,77.24
2023-03-22T04:16:47.593Z,77.12
2023-03-22T04:19:16.443Z,77.10
2023-03-22T04:21:44.418Z,77.31
2023-03-22T04:24:13.371Z,77.23
2023-03-22T04:26:43.015Z,77.27
2023-03-22T04:29:19.668Z,77.24
2023-03-22T04:31:50.553Z,77.36
2023-03-22T04:34:29.032Z,77.31
2023-03-22T04:37:11.727Z,77.36
2023-03-22T04:40:06.777Z,77.47
2023-03-22T04:42:57.755Z,77.54
2023-03-22T04:45:39.220Z,77.54
2023-03-22T04:48:08.048Z,77.45
2023-03-22T04:50:37.945Z,77.80
2023-03-22T04:53:06.712Z,78.40
2023-03-22T04:55:34.665Z,78.45
2023-03-22T04:58:03.317Z,78.72
2023-03-22T05:00:31.453Z,78.86
2023-03-22T05:03:00.207Z,79.13
2023-03-22T05:05:34.246Z,79.22
2023-03-22T05:08:02.957Z,79.40
2023-03-22T05:10:31.354Z,79.53
2023-03-22T05:12:59.427Z,79.67
2023-03-22T05:15:33.915Z,79.76
2023-03-22T05:18:02.997Z,80.09
2023-03-22T05:20:31.078Z,80.26
2023-03-22T05:23:12.490Z,80.56
2023-03-22T05:25:45.305Z,80.78
2023-03-22T05:28:16.946Z,80.82
2023-03-22T05:30:51.560Z,81.07
2023-03-22T05:33:29.760Z,81.48
2023-03-22T05:35:58.368Z,81.58
2023-03-22T05:38:28.211Z,81.73
2023-03-22T05:40:57.822Z,82.11
2023-03-22T05:43:26.298Z,82.19
2023-03-22T05:45:54.474Z,82.59
2023-03-22T05:48:36.501Z,82.38
2023-03-22T05:51:17.882Z,82.56
2023-03-22T05:53:48.293Z,82.83
2023-03-22T05:56:24.495Z,82.76
2023-03-22T05:58:58.376Z,82.60
2023-03-22T06:01:26.496Z,82.75
2023-03-22T06:04:06.963Z,82.80
2023-03-22T06:06:53.969Z,83.09
2023-03-22T06:09:40.204Z,83.10
2023-03-22T06:12:10.113Z,83.30
2023-03-22T06:14:38.589Z,83.01
2023-03-22T06:17:19.349Z,83.28
2023-03-22T06:19:48.761Z,83.30
2023-03-22T06:22:17.387Z,83.32
2023-03-22T06:24:45.856Z,83.16
2023-03-22T06:27:18.707Z,83.20
2023-03-22T06:29:51.078Z,83.36
2023-03-22T06:32:26.865Z,83.30
2023-03-22T06:34:55.304Z,83.69
2023-03-22T06:37:23.802Z,83.80
2023-03-22T06:39:52.329Z,83.78
2023-03-22T06:42:20.850Z,84.23
2023-03-22T06:44:54.538Z,84.24
2023-03-22T06:47:27.834Z,84.99
2023-03-22T06:50:11.577Z,84.96
2023-03-22T06:53:00.124Z,84.71
2023-03-22T06:55:28.294Z,84.86
2023-03-22T06:57:56.536Z,85.02
2023-03-22T07:00:24.840Z,85.16
2023-03-22T07:02:53.406Z,84.81
2023-03-22T07:05:31.751Z,84.89
2023-03-22T07:08:00.108Z,84.80
2023-03-22T07:10:29.516Z,84.86
2023-03-22T07:12:58.404Z,84.91
2023-03-22T07:15:26.597Z,84.96
2023-03-22T07:18:08.179Z,85.06
2023-03-22T07:20:41.848Z,85.31
2023-03-22T07:23:11.066Z,85.37
2023-03-22T07:25:48.227Z,85.37
2023-03-22T07:28:28.915Z,85.32
2023-03-22T07:31:07.072Z,85.41
2023-03-22T07:34:07.136Z,85.45
2023-03-22T07:36:42.286Z,85.48
2023-03-22T07:39:11.581Z,85.61
2023-03-22T07:41:43.446Z,85.59
2023-03-22T07:44:18.808Z,85.49
2023-03-22T07:47:37.746Z,85.47
2023-03-22T07:50:20.602Z,85.66
2023-03-22T07:52:52.173Z,85.66
2023-03-22T07:55:20.570Z,85.76
2023-03-22T07:57:48.666Z,85.68
2023-03-22T08:00:17.368Z,85.71
2023-03-22T08:02:48.941Z,85.72
2023-03-22T08:05:48.628Z,85.44
2023-03-22T08:08:16.607Z,85.39
2023-03-22T08:10:49.689Z,85.36
2023-03-22T08:13:17.851Z,85.52
2023-03-22T08:15:46.063Z,85.69
2023-03-22T08:18:14.063Z,85.73
2023-03-22T08:20:45.401Z,85.41
2023-03-22T08:23:17.068Z,85.40
2023-03-22T08:25:56.892Z,85.34
2023-03-22T08:28:25.249Z,85.32
2023-03-22T08:30:53.306Z,85.41
2023-03-22T08:33:23.878Z,85.14
2023-03-22T08:35:53.257Z,85.07
2023-03-22T08:38:21.492Z,85.03
2023-03-22T08:40:52.434Z,84.84
2023-03-22T08:43:23.194Z,84.65
2023-03-22T08:45:51.887Z,84.21
2023-03-22T08:48:21.884Z,83.86
2023-03-22T08:51:09.788Z,83.75
2023-03-22T08:53:49.493Z,83.73
2023-03-22T08:56:46.889Z,83.95
2023-03-22T08:59:35.794Z,83.72
2023-03-22T09:02:22.089Z,83.78
2023-03-22T09:04:51.676Z,83.57
2023-03-22T09:07:24.332Z,83.57
2023-03-22T09:10:18.686Z,83.64
2023-03-22T09:12:48.485Z,83.42
2023-03-22T09:15:16.709Z,83.55
2023-03-22T09:17:47.225Z,83.28
2023-03-22T09:20:15.720Z,83.16
2023-03-22T09:22:44.902Z,82.87
2023-03-22T09:25:14.717Z,82.67
2023-03-22T09:27:44.836Z,82.22
2023-03-22T09:30:13.632Z,81.88
2023-03-22T09:32:41.792Z,81.65
2023-03-22T09:35:11.296Z,81.72
2023-03-22T09:37:45.895Z,81.76
2023-03-22T09:40:14.165Z,81.64
2023-03-22T09:42:46.367Z,81.37
2023-03-22T09:45:25.178Z,81.13
2023-03-22T09:47:56.357Z,81.11
2023-03-22T09:50:30.102Z,81.12
2023-03-22T09:52:59.862Z,80.94
2023-03-22T09:55:50.614Z,80.93
2023-03-22T09:58:26.402Z,81.02
2023-03-22T10:01:05.528Z,81.00
2023-03-22T10:03:42.815Z,80.94
2023-03-22T10:06:13.390Z,81.32
2023-03-22T10:09:29.842Z,81.43
2023-03-22T10:12:35.696Z,81.81
2023-03-22T10:15:18.124Z,82.04
2023-03-22T10:17:52.255Z,82.30
2023-03-22T10:20:26.814Z,81.98
2023-03-22T10:22:57.883Z,81.92
2023-03-22T10:25:36.779Z,81.84
2023-03-22T10:28:15.781Z,81.91
2023-03-22T10:30:51.078Z,82.05
2023-03-22T10:33:50.213Z,81.89
2023-03-22T10:36:23.081Z,81.85
2023-03-22T10:38:59.195Z,81.59
2023-03-22T10:41:29.530Z,81.71
2023-03-22T10:44:00.875Z,81.46
2023-03-22T10:46:37.493Z,81.13
2023-03-22T10:49:07.403Z,81.04
2023-03-22T10:51:54.791Z,81.40
2023-03-22T10:54:26.083Z,81.40
2023-03-22T10:56:54.344Z,81.51
2023-03-22T10:59:51.959Z,81.54
2023-03-22T11:02:27.973Z,81.46
2023-03-22T11:05:05.447Z,81.78
2023-03-22T11:07:35.472Z,81.80
2023-03-22T11:10:09.503Z,81.51
2023-03-22T11:12:42.263Z,81.12
2023-03-22T11:15:32.747Z,80.75
2023-03-22T11:18:07.869Z,80.48
2023-03-22T11:20:36.032Z,80.35
2023-03-22T11:23:06.079Z,80.07
2023-03-22T11:25:44.284Z,80.15
2023-03-22T11:28:27.987Z,80.04
2023-03-22T11:31:05.513Z,80.00
2023-03-22T11:33:37.344Z,79.89
2023-03-22T11:36:16.578Z,79.89
2023-03-22T11:38:47.208Z,79.93
2023-03-22T11:41:25.978Z,80.04
2023-03-22T11:44:08.264Z,79.80
2023-03-22T11:46:37.833Z,79.54
2023-03-22T11:49:09.753Z,79.52
2023-03-22T11:51:40.392Z,79.32
2023-03-22T11:54:16.187Z,78.94
2023-03-22T11:56:48.212Z,78.93
2023-03-22T11:59:23.862Z,78.86
2023-03-22T12:01:55.567Z,78.64
2023-03-22T12:04:27.986Z,78.41
2023-03-22T12:06:59.959Z,78.48
2023-03-22T12:09:43.599Z,78.24
2023-03-22T12:12:19.394Z,77.78
2023-03-22T12:15:02.702Z,77.82
2023-03-22T12:17:50.383Z,77.82
2023-03-22T12:20:27.249Z,77.70
2023-03-22T12:22:55.672Z,77.31
2023-03-22T12:25:34.333Z,77.26
2023-03-22T12:28:17.620Z,77.08
2023-03-22T12:30:49.908Z,77.06
2023-03-22T12:33:40.780Z,76.09
2023-03-22T12:36:17.464Z,76.01
2023-03-22T12:38:51.538Z,75.40
2023-03-22T12:41:28.658Z,74.54
2023-03-22T12:44:04.284Z,74.52
2023-03-22T12:46:40.554Z,74.85
2023-03-22T12:49:21.588Z,75.01
2023-03-22T12:51:52.559Z,74.98
2023-03-22T12:54:25.488Z,74.54
2023-03-22T12:56:55.593Z,74.19
2023-03-22T12:59:29.018Z,73.78
2023-03-22T13:02:16.411Z,73.91
2023-03-22T13:04:44.390Z,73.88
2023-03-22T13:07:15.833Z,73.88
2023-03-22T13:09:48.908Z,73.55
2023-03-22T13:12:16.928Z,73.44
2023-03-22T13:14:56.252Z,73.39
2023-03-22T13:17:24.429Z,73.25
2023-03-22T13:20:06.812Z,72.70
2023-03-22T13:22:43.698Z,72.63
2023-03-22T13:25:17.096Z,72.47
2023-03-22T13:28:38.342Z,72.33
2023-03-22T13:31:06.755Z,72.54
2023-03-22T13:33:37.097Z,72.34
2023-03-22T13:36:25.146Z,72.58
2023-03-22T13:38:57.157Z,72.74
2023-03-22T13:41:34.809Z,72.85
2023-03-22T13:44:39.765Z,73.26
2023-03-22T13:47:44.144Z,74.05
2023-03-22T13:50:44.806Z,74.63
2023-03-22T13:53:22.385Z,74.90
2023-03-22T13:55:51.910Z,75.14
2023-03-22T13:58:51.091Z,75.08
2023-03-22T14:01:30.974Z,75.19
2023-03-22T14:04:02.139Z,75.02
2023-03-22T14:06:41.900Z,74.91
2023-03-22T14:09:21.053Z,74.26
2023-03-22T14:11:57.193Z,73.85
2023-03-22T14:14:32.465Z,73.60
2023-03-22T14:17:12.004Z,73.41
2023-03-22T14:19:42.248Z,73.13
